RYR2BB EIDW-LGZA
Flight info
| Callsign | RYR2BB |
|---|---|
| Flight time | N/A |
| Altitude | 37000 |
| Route | DEXEN2J DEXEN UY124 DOLOP DCT KEPAD L15 MOTOX DCT RUCAC DCT LESDO DCT ETINO DCT LASAT DCT DEVDI DCT RIPUS DCT RESIA DCT KEGED DCT EKMUR DCT LUPAL DCT LATAN UM872 ASTUS |
| Aircraft | B38M/M-SDE1FGHILORVWXY/HB1 |
Departure
| Time | 2026-05-06 14:11 |
|---|---|
| Airport | Dublin Airport (EIDW) |
Arrival
| Time | N/A |
|---|---|
| Airport | Zakynthos International Airport Dionysios Solomos (LGZA) |
| Time | Latitude | Longitude | Altitude | Speed | Heading |
|---|---|---|---|---|---|
| 2026-05-06 13:40 | 53.43006 | -6.24944 | 213 ft | 0 kts | 5° |
| 2026-05-06 14:02 | 53.42992 | -6.24946 | 216 ft | 3 kts | 10° |
| 2026-05-06 14:02 | 53.42973 | -6.24954 | 213 ft | 3 kts | 13° |
| 2026-05-06 14:02 | 53.42955 | -6.24958 | 219 ft | 3 kts | 341° |
| 2026-05-06 14:03 | 53.42951 | -6.24960 | 217 ft | 1 kts | 275° |
| 2026-05-06 14:03 | 53.42951 | -6.24957 | 218 ft | 2 kts | 274° |
| 2026-05-06 14:05 | 53.42951 | -6.24962 | 217 ft | 2 kts | 274° |
| 2026-05-06 14:05 | 53.42954 | -6.25033 | 218 ft | 10 kts | 275° |
| 2026-05-06 14:06 | 53.42961 | -6.25156 | 213 ft | 11 kts | 275° |
| 2026-05-06 14:06 | 53.42949 | -6.25282 | 216 ft | 12 kts | 250° |
| 2026-05-06 14:06 | 53.42980 | -6.25378 | 213 ft | 11 kts | 336° |
| 2026-05-06 14:06 | 53.43051 | -6.25429 | 221 ft | 12 kts | 336° |
| 2026-05-06 14:07 | 53.43137 | -6.25491 | 216 ft | 17 kts | 337° |
| 2026-05-06 14:07 | 53.43266 | -6.25585 | 216 ft | 22 kts | 336° |
| 2026-05-06 14:07 | 53.43391 | -6.25629 | 220 ft | 15 kts | 40° |
| 2026-05-06 14:07 | 53.43402 | -6.25463 | 213 ft | 15 kts | 95° |
| 2026-05-06 14:08 | 53.43392 | -6.25286 | 213 ft | 16 kts | 95° |
| 2026-05-06 14:08 | 53.43382 | -6.25101 | 216 ft | 16 kts | 95° |
| 2026-05-06 14:08 | 53.43373 | -6.24936 | 217 ft | 14 kts | 95° |
| 2026-05-06 14:08 | 53.43364 | -6.24773 | 219 ft | 14 kts | 95° |
| 2026-05-06 14:09 | 53.43364 | -6.24601 | 219 ft | 15 kts | 71° |
| 2026-05-06 14:09 | 53.43453 | -6.24553 | 215 ft | 14 kts | 3° |
| 2026-05-06 14:09 | 53.43522 | -6.24596 | 218 ft | 11 kts | 292° |
| 2026-05-06 14:09 | 53.43530 | -6.24669 | 223 ft | 0 kts | 274° |
| 2026-05-06 14:10 | 53.43535 | -6.24762 | 219 ft | 34 kts | 275° |
| 2026-05-06 14:10 | 53.43580 | -6.25585 | 214 ft | 107 kts | 275° |
| 2026-05-06 14:10 | 53.43666 | -6.27179 | 215 ft | 164 kts | 273° |
| 2026-05-06 14:11 | 53.43748 | -6.29223 | 518 ft | 186 kts | 274° |
| 2026-05-06 14:11 | 53.43934 | -6.31399 | 1130 ft | 192 kts | 285° |
| 2026-05-06 14:11 | 53.44554 | -6.33388 | 1814 ft | 198 kts | 313° |
| 2026-05-06 14:11 | 53.45588 | -6.34937 | 2443 ft | 196 kts | 321° |
| 2026-05-06 14:12 | 53.46639 | -6.36337 | 3135 ft | 193 kts | 320° |
| 2026-05-06 14:12 | 53.47768 | -6.37616 | 3579 ft | 205 kts | 334° |
| 2026-05-06 14:12 | 53.49049 | -6.38921 | 3816 ft | 226 kts | 312° |
| 2026-05-06 14:12 | 53.49817 | -6.41259 | 4111 ft | 240 kts | 280° |
| 2026-05-06 14:13 | 53.49703 | -6.43976 | 4908 ft | 234 kts | 249° |
| 2026-05-06 14:13 | 53.48779 | -6.46246 | 5532 ft | 238 kts | 222° |
| 2026-05-06 14:13 | 53.47354 | -6.47614 | 6201 ft | 243 kts | 195° |
| 2026-05-06 14:13 | 53.45669 | -6.47714 | 6943 ft | 249 kts | 168° |
| 2026-05-06 14:14 | 53.44060 | -6.46380 | 7343 ft | 270 kts | 140° |
| 2026-05-06 14:14 | 53.42979 | -6.43723 | 7906 ft | 281 kts | 108° |
| 2026-05-06 14:14 | 53.42593 | -6.40537 | 8679 ft | 285 kts | 103° |
| 2026-05-06 14:14 | 53.42084 | -6.37250 | 9322 ft | 292 kts | 105° |
| 2026-05-06 14:15 | 53.41664 | -6.34605 | 9915 ft | 296 kts | 105° |
| 2026-05-06 14:15 | 53.41130 | -6.31246 | 10391 ft | 309 kts | 105° |
| 2026-05-06 14:15 | 53.40542 | -6.27664 | 10647 ft | 328 kts | 105° |
| 2026-05-06 14:15 | 53.40130 | -6.25181 | 10872 ft | 338 kts | 105° |
| 2026-05-06 14:16 | 53.39537 | -6.21586 | 11267 ft | 349 kts | 105° |
| 2026-05-06 14:16 | 53.38896 | -6.17640 | 11947 ft | 352 kts | 105° |
| 2026-05-06 14:16 | 53.38050 | -6.12346 | 12799 ft | 358 kts | 105° |
| 2026-05-06 14:16 | 53.37615 | -6.09605 | 13257 ft | 360 kts | 105° |
| 2026-05-06 14:17 | 53.36975 | -6.05569 | 13907 ft | 364 kts | 105° |
| 2026-05-06 14:17 | 53.36103 | -6.00084 | 14708 ft | 368 kts | 105° |
| 2026-05-06 14:17 | 53.35656 | -5.97274 | 15124 ft | 370 kts | 105° |
| 2026-05-06 14:17 | 53.34996 | -5.93134 | 15714 ft | 374 kts | 105° |
| 2026-05-06 14:18 | 53.34321 | -5.88908 | 16332 ft | 376 kts | 105° |
| 2026-05-06 14:18 | 53.33639 | -5.84644 | 16911 ft | 380 kts | 105° |
| 2026-05-06 14:18 | 53.32951 | -5.80350 | 17489 ft | 383 kts | 105° |
| 2026-05-06 14:18 | 53.32256 | -5.76026 | 18058 ft | 386 kts | 105° |
| 2026-05-06 14:19 | 53.31562 | -5.71716 | 18576 ft | 389 kts | 105° |
| 2026-05-06 14:19 | 53.30854 | -5.67330 | 19042 ft | 392 kts | 105° |
| 2026-05-06 14:19 | 53.30138 | -5.62905 | 19527 ft | 395 kts | 105° |
| 2026-05-06 14:19 | 53.29417 | -5.58454 | 19972 ft | 398 kts | 105° |
| 2026-05-06 14:20 | 53.28687 | -5.53964 | 20448 ft | 401 kts | 105° |
| 2026-05-06 14:20 | 53.28046 | -5.49407 | 20874 ft | 404 kts | 96° |
| 2026-05-06 14:20 | 53.27950 | -5.44717 | 21417 ft | 403 kts | 91° |
| 2026-05-06 14:20 | 53.27798 | -5.40057 | 21728 ft | 410 kts | 92° |
| 2026-05-06 14:21 | 53.27639 | -5.35287 | 22209 ft | 411 kts | 92° |
| 2026-05-06 14:21 | 53.27490 | -5.30480 | 22591 ft | 416 kts | 92° |
| 2026-05-06 14:21 | 53.27344 | -5.25681 | 23056 ft | 417 kts | 92° |
| 2026-05-06 14:21 | 53.27198 | -5.20817 | 23447 ft | 421 kts | 92° |
| 2026-05-06 14:22 | 53.27043 | -5.15902 | 23826 ft | 423 kts | 92° |
| 2026-05-06 14:22 | 53.26885 | -5.11051 | 24179 ft | 425 kts | 92° |
| 2026-05-06 14:22 | 53.26722 | -5.06095 | 24544 ft | 427 kts | 92° |
| 2026-05-06 14:22 | 53.26559 | -5.01199 | 24889 ft | 429 kts | 92° |
| 2026-05-06 14:23 | 53.26391 | -4.96187 | 25238 ft | 431 kts | 92° |
| 2026-05-06 14:23 | 53.26220 | -4.91167 | 25577 ft | 433 kts | 92° |
| 2026-05-06 14:23 | 53.26048 | -4.86174 | 25912 ft | 435 kts | 92° |
| 2026-05-06 14:23 | 53.25871 | -4.81116 | 26237 ft | 437 kts | 92° |
| 2026-05-06 14:24 | 53.25692 | -4.76028 | 26568 ft | 438 kts | 92° |
| 2026-05-06 14:24 | 53.25524 | -4.70924 | 26880 ft | 440 kts | 92° |
| 2026-05-06 14:24 | 53.25353 | -4.65811 | 27191 ft | 442 kts | 92° |
| 2026-05-06 14:24 | 53.25180 | -4.60709 | 27497 ft | 444 kts | 92° |
| 2026-05-06 14:25 | 53.25002 | -4.55524 | 27798 ft | 446 kts | 92° |
| 2026-05-06 14:25 | 53.24822 | -4.50333 | 28099 ft | 448 kts | 92° |
| 2026-05-06 14:25 | 53.24638 | -4.45116 | 28394 ft | 450 kts | 92° |
| 2026-05-06 14:25 | 53.24452 | -4.39888 | 28682 ft | 452 kts | 92° |
| 2026-05-06 14:26 | 53.24265 | -4.34698 | 28962 ft | 454 kts | 92° |
| 2026-05-06 14:26 | 53.24072 | -4.29415 | 29263 ft | 456 kts | 92° |
| 2026-05-06 14:26 | 53.23876 | -4.24121 | 29527 ft | 458 kts | 92° |
| 2026-05-06 14:26 | 53.23678 | -4.18810 | 29783 ft | 460 kts | 93° |
| 2026-05-06 14:27 | 53.23474 | -4.13436 | 30054 ft | 461 kts | 93° |
| 2026-05-06 14:27 | 53.23271 | -4.08133 | 30255 ft | 463 kts | 93° |
| 2026-05-06 14:27 | 53.23062 | -4.02723 | 30474 ft | 465 kts | 93° |
| 2026-05-06 14:27 | 53.22848 | -3.97319 | 30678 ft | 467 kts | 93° |
| 2026-05-06 14:28 | 53.22628 | -3.91943 | 30881 ft | 468 kts | 93° |
| 2026-05-06 14:28 | 53.22405 | -3.86488 | 31111 ft | 469 kts | 93° |
| 2026-05-06 14:28 | 53.22181 | -3.81092 | 31399 ft | 468 kts | 93° |
| 2026-05-06 14:28 | 53.21954 | -3.75667 | 31673 ft | 468 kts | 94° |
| 2026-05-06 14:29 | 53.21724 | -3.70237 | 31949 ft | 468 kts | 94° |
| 2026-05-06 14:29 | 53.21362 | -3.64846 | 32166 ft | 468 kts | 103° |
| 2026-05-06 14:29 | 53.20226 | -3.59863 | 32521 ft | 462 kts | 120° |
| 2026-05-06 14:29 | 53.18650 | -3.55205 | 32748 ft | 463 kts | 120° |
| 2026-05-06 14:30 | 53.17071 | -3.50499 | 32902 ft | 464 kts | 120° |
| 2026-05-06 14:30 | 53.15475 | -3.45820 | 33154 ft | 464 kts | 121° |
| 2026-05-06 14:30 | 53.13867 | -3.41154 | 33389 ft | 464 kts | 121° |
| 2026-05-06 14:30 | 53.12249 | -3.36485 | 33628 ft | 463 kts | 121° |
| 2026-05-06 14:31 | 53.10656 | -3.31893 | 33872 ft | 463 kts | 121° |
| 2026-05-06 14:31 | 53.09036 | -3.27235 | 34091 ft | 463 kts | 121° |
| 2026-05-06 14:31 | 53.07414 | -3.22577 | 34278 ft | 463 kts | 121° |
| 2026-05-06 14:31 | 53.05814 | -3.17992 | 34441 ft | 463 kts | 121° |
| 2026-05-06 14:32 | 53.04192 | -3.13352 | 34606 ft | 463 kts | 121° |
| 2026-05-06 14:32 | 53.02570 | -3.08720 | 34772 ft | 463 kts | 121° |
| 2026-05-06 14:32 | 53.00969 | -3.04156 | 34928 ft | 463 kts | 121° |
| 2026-05-06 14:32 | 52.99338 | -2.99517 | 35097 ft | 463 kts | 121° |
| 2026-05-06 14:33 | 52.97712 | -2.94900 | 35249 ft | 463 kts | 121° |
| 2026-05-06 14:33 | 52.96079 | -2.90273 | 35411 ft | 463 kts | 121° |
| 2026-05-06 14:33 | 52.94445 | -2.85649 | 35561 ft | 463 kts | 121° |
| 2026-05-06 14:33 | 52.92834 | -2.81099 | 35706 ft | 463 kts | 122° |
| 2026-05-06 14:34 | 52.91198 | -2.76487 | 35847 ft | 463 kts | 122° |
| 2026-05-06 14:34 | 52.89558 | -2.71874 | 35971 ft | 463 kts | 122° |
| 2026-05-06 14:34 | 52.87921 | -2.67275 | 36128 ft | 463 kts | 122° |
| 2026-05-06 14:34 | 52.86294 | -2.62716 | 36252 ft | 463 kts | 122° |
| 2026-05-06 14:35 | 52.84648 | -2.58110 | 36384 ft | 463 kts | 122° |
| 2026-05-06 14:35 | 52.83006 | -2.53519 | 36509 ft | 463 kts | 122° |
| 2026-05-06 14:35 | 52.81347 | -2.48927 | 36627 ft | 463 kts | 124° |
| 2026-05-06 14:35 | 52.79387 | -2.44820 | 36750 ft | 458 kts | 136° |
| 2026-05-06 14:36 | 52.77211 | -2.40989 | 37040 ft | 454 kts | 134° |
| 2026-05-06 14:36 | 52.75087 | -2.37127 | 37090 ft | 455 kts | 134° |
| 2026-05-06 14:36 | 52.70823 | -2.29375 | 37048 ft | 459 kts | 134° |
| 2026-05-06 14:37 | 52.66694 | -2.21891 | 37044 ft | 460 kts | 134° |
| 2026-05-06 14:37 | 52.62372 | -2.14082 | 37041 ft | 459 kts | 134° |
| 2026-05-06 14:38 | 52.58085 | -2.06359 | 37040 ft | 459 kts | 134° |
| 2026-05-06 14:38 | 52.53770 | -1.98610 | 37021 ft | 459 kts | 134° |
| 2026-05-06 14:39 | 52.49448 | -1.90874 | 37020 ft | 459 kts | 134° |
| 2026-05-06 14:39 | 52.45139 | -1.83185 | 37021 ft | 458 kts | 134° |
| 2026-05-06 14:40 | 52.40827 | -1.75514 | 37021 ft | 458 kts | 134° |
| 2026-05-06 14:40 | 52.36506 | -1.67848 | 37022 ft | 458 kts | 135° |
| 2026-05-06 14:41 | 52.32101 | -1.60303 | 37021 ft | 458 kts | 135° |
| 2026-05-06 14:41 | 52.27721 | -1.52818 | 37017 ft | 457 kts | 135° |
| 2026-05-06 14:42 | 52.23327 | -1.45325 | 37021 ft | 457 kts | 135° |
| 2026-05-06 14:42 | 52.18916 | -1.37828 | 37019 ft | 457 kts | 135° |
| 2026-05-06 14:43 | 52.14496 | -1.30338 | 37023 ft | 457 kts | 135° |
| 2026-05-06 14:43 | 52.10099 | -1.22910 | 37018 ft | 456 kts | 135° |
| 2026-05-06 14:44 | 52.05685 | -1.15475 | 37012 ft | 456 kts | 135° |
| 2026-05-06 14:45 | 51.99065 | -1.04388 | 36980 ft | 456 kts | 136° |
| 2026-05-06 14:45 | 51.94649 | -0.97015 | 36993 ft | 456 kts | 136° |
| 2026-05-06 14:46 | 51.90242 | -0.89680 | 36987 ft | 456 kts | 136° |
| 2026-05-06 14:46 | 51.86205 | -0.82979 | 36991 ft | 456 kts | 136° |
| 2026-05-06 14:47 | 51.81800 | -0.75686 | 36989 ft | 456 kts | 136° |
| 2026-05-06 14:47 | 51.77346 | -0.68341 | 36990 ft | 456 kts | 136° |
| 2026-05-06 14:48 | 51.73013 | -0.61214 | 36995 ft | 455 kts | 136° |
| 2026-05-06 14:48 | 51.68563 | -0.53917 | 36990 ft | 455 kts | 136° |
| 2026-05-06 14:49 | 51.64106 | -0.46630 | 36999 ft | 455 kts | 136° |
| 2026-05-06 14:49 | 51.59676 | -0.39408 | 37000 ft | 455 kts | 136° |
| 2026-05-06 14:50 | 51.55210 | -0.32152 | 36998 ft | 455 kts | 136° |
| 2026-05-06 14:50 | 51.50780 | -0.24974 | 36994 ft | 455 kts | 136° |
| 2026-05-06 14:51 | 51.46305 | -0.17743 | 36991 ft | 455 kts | 136° |
| 2026-05-06 14:51 | 51.41863 | -0.10588 | 36993 ft | 455 kts | 136° |
| 2026-05-06 14:52 | 51.41036 | -0.09258 | 36994 ft | 455 kts | 136° |
| 2026-05-06 14:53 | 51.36589 | -0.02118 | 36994 ft | 454 kts | 136° |
| 2026-05-06 14:53 | 51.32667 | 0.05750 | 36956 ft | 453 kts | 114° |
| 2026-05-06 14:54 | 51.30268 | 0.15015 | 36945 ft | 455 kts | 114° |
| 2026-05-06 14:54 | 51.27867 | 0.24317 | 36971 ft | 457 kts | 112° |
| 2026-05-06 14:55 | 51.25460 | 0.33740 | 37028 ft | 458 kts | 113° |
| 2026-05-06 14:55 | 51.23052 | 0.43110 | 37020 ft | 457 kts | 113° |
| 2026-05-06 14:56 | 51.20626 | 0.52515 | 37019 ft | 457 kts | 113° |
| 2026-05-06 14:56 | 51.18212 | 0.61833 | 37013 ft | 457 kts | 113° |
| 2026-05-06 14:57 | 51.15779 | 0.71188 | 37002 ft | 456 kts | 113° |
| 2026-05-06 14:57 | 51.13334 | 0.80546 | 36962 ft | 456 kts | 113° |
| 2026-05-06 14:58 | 51.10897 | 0.89838 | 36963 ft | 456 kts | 113° |
| 2026-05-06 14:58 | 51.08445 | 0.99151 | 36962 ft | 456 kts | 113° |
| 2026-05-06 14:59 | 51.05996 | 1.08411 | 36963 ft | 456 kts | 114° |
| 2026-05-06 14:59 | 51.03527 | 1.17713 | 36964 ft | 456 kts | 114° |
| 2026-05-06 15:00 | 51.01049 | 1.27011 | 36961 ft | 455 kts | 114° |
| 2026-05-06 15:00 | 50.98584 | 1.36221 | 36956 ft | 455 kts | 114° |
| 2026-05-06 15:01 | 50.96097 | 1.45475 | 36952 ft | 455 kts | 114° |
| 2026-05-06 15:01 | 50.93614 | 1.54680 | 36956 ft | 455 kts | 114° |
| 2026-05-06 15:02 | 50.91115 | 1.63907 | 36955 ft | 455 kts | 114° |
| 2026-05-06 15:02 | 50.89005 | 1.71565 | 36952 ft | 455 kts | 118° |
| 2026-05-06 15:02 | 50.86514 | 1.76789 | 36956 ft | 443 kts | 140° |
| 2026-05-06 15:03 | 50.85004 | 1.78932 | 37130 ft | 440 kts | 137° |
| 2026-05-06 15:03 | 50.82819 | 1.82426 | 36844 ft | 447 kts | 137° |
| 2026-05-06 15:03 | 50.80582 | 1.85857 | 36956 ft | 443 kts | 137° |
| 2026-05-06 15:04 | 50.76137 | 1.92576 | 36949 ft | 447 kts | 137° |
| 2026-05-06 15:04 | 50.71607 | 1.99379 | 36949 ft | 449 kts | 138° |
| 2026-05-06 15:05 | 50.67081 | 2.06156 | 36940 ft | 450 kts | 138° |
| 2026-05-06 15:05 | 50.62537 | 2.12942 | 36935 ft | 449 kts | 137° |
| 2026-05-06 15:06 | 50.57991 | 2.19710 | 36930 ft | 449 kts | 138° |
| 2026-05-06 15:06 | 50.53466 | 2.26430 | 36921 ft | 449 kts | 138° |
| 2026-05-06 15:07 | 50.48940 | 2.33133 | 36925 ft | 449 kts | 138° |
| 2026-05-06 15:07 | 50.44367 | 2.39886 | 36921 ft | 449 kts | 138° |
| 2026-05-06 15:08 | 50.39840 | 2.46554 | 36921 ft | 449 kts | 138° |
| 2026-05-06 15:08 | 50.35269 | 2.53266 | 36917 ft | 449 kts | 138° |
| 2026-05-06 15:09 | 50.30736 | 2.59905 | 36915 ft | 449 kts | 138° |
| 2026-05-06 15:09 | 50.26163 | 2.66586 | 36910 ft | 449 kts | 138° |
| 2026-05-06 15:10 | 50.21603 | 2.73227 | 36918 ft | 448 kts | 138° |
| 2026-05-06 15:10 | 50.17029 | 2.79871 | 36913 ft | 448 kts | 138° |
| 2026-05-06 15:11 | 50.12487 | 2.86449 | 36910 ft | 448 kts | 138° |
| 2026-05-06 15:11 | 50.07907 | 2.93066 | 36908 ft | 448 kts | 138° |
| 2026-05-06 15:12 | 50.03323 | 2.99670 | 36914 ft | 448 kts | 138° |
| 2026-05-06 15:12 | 49.98756 | 3.06232 | 36904 ft | 447 kts | 138° |
| 2026-05-06 15:13 | 49.94181 | 3.12787 | 36903 ft | 447 kts | 139° |
| 2026-05-06 15:13 | 49.89626 | 3.19297 | 36901 ft | 447 kts | 139° |
| 2026-05-06 15:14 | 49.85047 | 3.25827 | 36902 ft | 446 kts | 139° |
| 2026-05-06 15:14 | 49.80547 | 3.32412 | 36877 ft | 447 kts | 130° |
| 2026-05-06 15:15 | 49.76711 | 3.39980 | 36871 ft | 447 kts | 130° |
| 2026-05-06 15:15 | 49.72808 | 3.47442 | 36896 ft | 448 kts | 130° |
| 2026-05-06 15:16 | 49.68909 | 3.54976 | 36889 ft | 448 kts | 130° |
| 2026-05-06 15:16 | 49.65042 | 3.62443 | 36889 ft | 448 kts | 130° |
| 2026-05-06 15:17 | 49.61168 | 3.69903 | 36888 ft | 448 kts | 130° |
| 2026-05-06 15:17 | 49.57265 | 3.77397 | 36889 ft | 447 kts | 130° |
| 2026-05-06 15:18 | 49.53357 | 3.84879 | 36890 ft | 447 kts | 130° |
| 2026-05-06 15:18 | 49.49468 | 3.92307 | 36885 ft | 447 kts | 130° |
| 2026-05-06 15:19 | 49.45566 | 3.99735 | 36882 ft | 447 kts | 130° |
| 2026-05-06 15:19 | 49.41658 | 4.07156 | 36881 ft | 447 kts | 130° |
| 2026-05-06 15:20 | 49.37721 | 4.14610 | 36880 ft | 447 kts | 130° |
| 2026-05-06 15:20 | 49.33818 | 4.21979 | 36882 ft | 447 kts | 130° |
| 2026-05-06 15:21 | 49.29871 | 4.29410 | 36882 ft | 447 kts | 130° |
| 2026-05-06 15:21 | 49.25946 | 4.36779 | 36882 ft | 447 kts | 130° |
| 2026-05-06 15:22 | 49.22000 | 4.44168 | 36888 ft | 448 kts | 131° |
| 2026-05-06 15:22 | 49.18065 | 4.51515 | 36869 ft | 448 kts | 131° |
| 2026-05-06 15:23 | 49.14121 | 4.58859 | 36866 ft | 448 kts | 131° |
| 2026-05-06 15:23 | 49.10161 | 4.66211 | 36873 ft | 447 kts | 131° |
| 2026-05-06 15:24 | 49.06221 | 4.73508 | 36869 ft | 447 kts | 131° |
| 2026-05-06 15:24 | 49.02252 | 4.80837 | 36867 ft | 447 kts | 131° |
| 2026-05-06 15:25 | 48.98280 | 4.88151 | 36862 ft | 447 kts | 131° |
| 2026-05-06 15:25 | 48.94335 | 4.95399 | 36869 ft | 446 kts | 131° |
| 2026-05-06 15:26 | 48.90380 | 5.02647 | 36866 ft | 446 kts | 131° |
| 2026-05-06 15:26 | 48.86765 | 5.10322 | 36876 ft | 447 kts | 126° |
| 2026-05-06 15:27 | 48.83311 | 5.18136 | 36877 ft | 447 kts | 126° |
| 2026-05-06 15:27 | 48.79849 | 5.26046 | 36868 ft | 447 kts | 126° |
| 2026-05-06 15:28 | 48.76422 | 5.33867 | 36864 ft | 447 kts | 126° |
| 2026-05-06 15:28 | 48.72980 | 5.41699 | 36857 ft | 447 kts | 126° |
| 2026-05-06 15:29 | 48.69526 | 5.49540 | 36866 ft | 447 kts | 126° |
| 2026-05-06 15:29 | 48.66084 | 5.57328 | 36863 ft | 446 kts | 126° |
| 2026-05-06 15:30 | 48.62625 | 5.65132 | 36854 ft | 446 kts | 126° |
| 2026-05-06 15:30 | 48.59182 | 5.72878 | 36854 ft | 446 kts | 126° |
| 2026-05-06 15:31 | 48.55712 | 5.80665 | 36855 ft | 446 kts | 126° |
| 2026-05-06 15:31 | 48.52254 | 5.88398 | 36852 ft | 446 kts | 126° |
| 2026-05-06 15:32 | 48.47050 | 5.99997 | 36853 ft | 446 kts | 126° |
| 2026-05-06 15:32 | 48.43546 | 6.07780 | 37028 ft | 446 kts | 127° |
| 2026-05-06 15:33 | 48.40067 | 6.15484 | 37201 ft | 446 kts | 127° |
| 2026-05-06 15:33 | 48.36562 | 6.23225 | 37352 ft | 446 kts | 127° |
| 2026-05-06 15:34 | 48.33075 | 6.30904 | 37492 ft | 447 kts | 127° |
| 2026-05-06 15:34 | 48.29559 | 6.38623 | 37637 ft | 447 kts | 127° |
| 2026-05-06 15:35 | 48.26033 | 6.46345 | 37766 ft | 447 kts | 127° |
| 2026-05-06 15:35 | 48.22522 | 6.54011 | 37891 ft | 447 kts | 127° |
| 2026-05-06 15:36 | 48.18983 | 6.61721 | 38029 ft | 447 kts | 128° |
| 2026-05-06 15:36 | 48.15433 | 6.69355 | 38114 ft | 447 kts | 129° |
| 2026-05-06 15:37 | 48.11788 | 6.76923 | 38205 ft | 448 kts | 129° |
| 2026-05-06 15:37 | 48.08160 | 6.84470 | 38265 ft | 448 kts | 129° |
| 2026-05-06 15:38 | 48.04529 | 6.92008 | 38312 ft | 449 kts | 129° |
| 2026-05-06 15:38 | 48.00867 | 6.99588 | 38362 ft | 449 kts | 129° |
| 2026-05-06 15:39 | 47.97201 | 7.07155 | 38445 ft | 449 kts | 129° |
| 2026-05-06 15:39 | 47.93544 | 7.14684 | 38457 ft | 449 kts | 129° |
| 2026-05-06 15:40 | 47.89863 | 7.22237 | 38481 ft | 450 kts | 129° |
| 2026-05-06 15:40 | 47.86174 | 7.29788 | 38516 ft | 450 kts | 129° |
| 2026-05-06 15:41 | 47.82509 | 7.37269 | 38572 ft | 450 kts | 130° |
| 2026-05-06 15:41 | 47.78805 | 7.44810 | 38619 ft | 450 kts | 130° |
| 2026-05-06 15:42 | 47.75118 | 7.52301 | 38658 ft | 449 kts | 130° |
| 2026-05-06 15:42 | 47.71429 | 7.59761 | 38715 ft | 448 kts | 130° |
| 2026-05-06 15:43 | 47.69590 | 7.63475 | 38837 ft | 445 kts | 130° |
| 2026-05-06 15:43 | 47.67757 | 7.67172 | 38900 ft | 443 kts | 130° |
| 2026-05-06 15:43 | 47.64085 | 7.74562 | 38882 ft | 443 kts | 130° |
| 2026-05-06 15:44 | 47.60442 | 7.81875 | 38883 ft | 442 kts | 130° |
| 2026-05-06 15:44 | 47.56778 | 7.89209 | 38877 ft | 441 kts | 130° |
| 2026-05-06 15:45 | 47.53142 | 7.96469 | 38873 ft | 440 kts | 131° |
| 2026-05-06 15:45 | 47.49490 | 8.03739 | 38883 ft | 439 kts | 130° |
| 2026-05-06 15:46 | 47.45933 | 8.10805 | 38885 ft | 438 kts | 131° |
| 2026-05-06 15:46 | 47.42300 | 8.18002 | 38880 ft | 437 kts | 131° |
| 2026-05-06 15:47 | 47.38683 | 8.25147 | 38894 ft | 436 kts | 131° |
| 2026-05-06 15:47 | 47.35054 | 8.32300 | 38882 ft | 436 kts | 131° |
| 2026-05-06 15:48 | 47.31407 | 8.39468 | 38883 ft | 435 kts | 131° |
| 2026-05-06 15:48 | 47.27797 | 8.46549 | 38899 ft | 434 kts | 131° |
| 2026-05-06 15:49 | 47.24816 | 8.52527 | 38899 ft | 434 kts | 130° |
| 2026-05-06 15:49 | 47.20697 | 8.60872 | 38902 ft | 432 kts | 131° |
| 2026-05-06 15:50 | 47.17747 | 8.66826 | 38891 ft | 431 kts | 131° |
| 2026-05-06 15:50 | 47.14208 | 8.73955 | 38884 ft | 431 kts | 131° |
| 2026-05-06 15:51 | 47.10695 | 8.81010 | 38889 ft | 429 kts | 131° |
| 2026-05-06 15:51 | 47.07165 | 8.88083 | 38887 ft | 427 kts | 131° |
| 2026-05-06 15:52 | 47.03687 | 8.95036 | 38909 ft | 423 kts | 131° |
| 2026-05-06 15:52 | 47.00197 | 9.01993 | 38851 ft | 421 kts | 131° |
| 2026-05-06 15:53 | 46.96746 | 9.08854 | 38872 ft | 418 kts | 131° |
| 2026-05-06 15:53 | 46.93313 | 9.15664 | 38877 ft | 415 kts | 131° |
| 2026-05-06 15:54 | 46.89879 | 9.22461 | 38876 ft | 412 kts | 131° |
| 2026-05-06 15:54 | 46.86485 | 9.29160 | 38870 ft | 409 kts | 131° |
| 2026-05-06 15:55 | 46.83110 | 9.35809 | 38880 ft | 404 kts | 131° |
| 2026-05-06 15:55 | 46.79791 | 9.42328 | 38864 ft | 399 kts | 131° |
| 2026-05-06 15:56 | 46.76499 | 9.48780 | 38885 ft | 392 kts | 131° |
| 2026-05-06 15:56 | 46.73279 | 9.55079 | 38855 ft | 385 kts | 132° |
| 2026-05-06 15:57 | 46.70113 | 9.61260 | 38858 ft | 374 kts | 132° |
| 2026-05-06 15:57 | 46.67060 | 9.67203 | 38861 ft | 361 kts | 132° |
| 2026-05-06 15:58 | 46.64102 | 9.72952 | 38917 ft | 349 kts | 133° |
| 2026-05-06 15:58 | 46.62652 | 9.75764 | 38800 ft | 344 kts | 133° |
| 2026-05-06 15:58 | 46.61238 | 9.78548 | 38350 ft | 354 kts | 130° |
| 2026-05-06 15:59 | 46.59848 | 9.81714 | 37015 ft | 391 kts | 123° |
| 2026-05-06 15:59 | 46.58675 | 9.85571 | 35438 ft | 444 kts | 114° |
| 2026-05-06 15:59 | 46.57918 | 9.90244 | 33521 ft | 505 kts | 104° |
| 2026-05-06 15:59 | 46.57796 | 9.95596 | 30909 ft | 555 kts | 91° |
| 2026-05-06 16:00 | 46.58496 | 10.01292 | 27477 ft | 584 kts | 77° |
| 2026-05-06 16:00 | 46.60028 | 10.06641 | 23780 ft | 571 kts | 62° |
| 2026-05-06 16:00 | 46.62347 | 10.11128 | 19759 ft | 538 kts | 45° |
| 2026-05-06 16:00 | 46.65248 | 10.14285 | 16269 ft | 505 kts | 28° |
| 2026-05-06 16:01 | 46.68454 | 10.15966 | 13209 ft | 476 kts | 9° |
| 2026-05-06 16:01 | 46.71648 | 10.16095 | 10331 ft | 445 kts | 351° |
| 2026-05-06 16:01 | 46.72740 | 10.16492 | 9603 ft | 51 kts | 26° |
| 2026-05-06 16:01 | 46.72613 | 10.16555 | 9196 ft | 13 kts | 336° |
| 2026-05-06 16:02 | 46.72590 | 10.16571 | 9129 ft | 0 kts | 336° |